EST,Max TemperatureF,Mean TemperatureF,Min TemperatureF,Max Dew PointF,MeanDew PointF,Min DewpointF,Max Humidity, Mean Humidity, Min Humidity, Max Sea Level PressureIn, Mean Sea Level PressureIn, Min Sea Level PressureIn, Max VisibilityMiles, Mean VisibilityMiles, Min VisibilityMiles, Max Wind SpeedMPH, Mean Wind SpeedMPH, Max Gust SpeedMPH,PrecipitationIn, CloudCover, Events, WindDirDegrees
2012-2-1,57,49,41,44,41,35,86,71,55,30.07,30.04,29.99,10,10,10,20,9,30,0.05,5,Rain,247
2012-2-2,42,37,31,34,30,26,96,78,59,30.43,30.18,30.03,10,9,5,17,6,25,0.00,4,,316
2012-2-3,48,37,25,28,26,24,92,71,49,30.54,30.44,30.35,10,9,5,10,2,28,0.00,0,,119
2012-2-4,35,32,28,32,30,26,96,86,75,30.33,30.19,30.10,10,3,0,10,3,12,0.25,7,Fog-Snow,39
2012-2-5,44,37,30,32,27,22,96,69,41,30.27,30.16,30.05,10,7,2,10,5,14,0.00,4,,357
2012-2-6,47,35,23,27,23,19,92,63,34,30.25,30.19,30.11,10,10,9,14,6,20,0.00,0,,235
2012-2-7,39,34,29,27,25,23,78,69,59,30.28,30.22,30.14,10,9,7,12,5,15,0.00,4,,314
2012-2-8,32,29,26,29,27,21,92,85,78,30.28,30.20,30.15,10,4,0,15,6,21,0.10,7,Fog-Snow,346
2012-2-9,35,28,21,21,19,18,92,72,51,30.34,30.28,30.22,10,10,9,16,9,21,0.00,2,,243
2012-2-10,33,30,27,28,24,19,100,81,61,30.20,30.01,29.90,10,6,1,13,7,16,T,8,Snow,238
2012-2-11,28,20,12,27,16,3,92,80,67,30.21,29.92,29.74,10,4,0,31,13,38,T,8,Fog-Snow,266
2012-2-12,21,17,12,13,10,5,80,71,62,30.24,30.17,30.11,10,6,2,25,13,33,T,7,Snow,256
2012-2-13,34,26,17,16,13,7,84,58,32,30.25,30.18,30.07,10,10,10,16,9,22,0.00,2,,222
2012-2-14,36,33,29,34,27,17,100,76,52,30.08,29.97,29.89,10,8,2,15,7,21,0.08,8,Rain-Snow,190
2012-2-15,42,37,32,31,29,27,96,79,62,30.31,30.21,30.10,10,9,7,14,7,18,0.00,7,,225
2012-2-16,47,42,37,45,40,31,93,82,70,30.14,30.03,29.93,10,8,2,21,9,26,0.20,8,Rain,220
2012-2-17,46,38,30,34,26,19,92,65,37,30.17,30.14,30.07,10,8,3,20,7,25,0.00,4,,257
2012-2-18,48,38,28,28,23,19,72,55,37,30.16,30.07,29.99,10,10,10,24,10,33,0.00,4,,254
2012-2-19,38,31,24,22,20,17,81,65,48,30.16,30.08,29.99,10,10,10,18,9,23,0.00,2,,36
2012-2-20,41,31,21,19,17,16,77,59,40,30.39,30.28,30.14,10,10,10,10,4,15,0.00,2,,74
2012-2-21,50,40,30,36,24,12,70,52,33,30.24,29.94,29.80,10,10,5,26,11,36,T,5,Rain,199
2012-2-22,56,47,38,34,30,25,76,54,32,29.83,29.63,29.42,10,10,10,29,13,38,0.00,5,,224
2012-2-23,52,45,38,34,30,26,76,57,38,29.65,29.56,29.42,10,10,10,30,9,35,0.01,5,Rain,248
2012-2-24,54,44,34,49,34,22,93,67,41,29.78,29.51,29.37,10,9,4,45,17,61,T,7,Rain-Snow,232
2012-2-25,34,31,27,25,20,15,75,67,58,30.36,30.01,29.75,10,5,1,30,18,43,T,8,Snow,262
2012-2-26,43,33,22,18,14,13,74,52,29,30.48,30.38,30.28,10,10,10,17,6,22,0.00,1,,176
2012-2-27,58,44,30,28,20,14,63,44,24,30.49,30.27,30.17,10,10,10,37,15,47,0.00,3,,238
2012-2-28,48,35,22,23,20,19,88,61,34,30.52,30.41,30.20,10,10,6,12,4,16,0.00,1,,70
2012-2-29,66,52,37,55,44,21,93,69,44,30.16,29.78,29.56,10,6,0,28,11,38,0.90,7,Fog-Rain-Thunderstorm,181